Search for airport 
image banner adimage banner adimage banner ad
image banner ad

IA33 - City Of Stuart

Located in Stuart, United States

ICAO - IA33, IATA -

Data provided by Airmate  

General information

Coordinates: N41°29'49" W94°19'39"
Elevation is 1216 feet MSL.
 
View others Airports in Iowa

Operational data

Special qualification required
Current time UTC:
Current local time:
Weather at : KPRO - Perry Muni ( 39 km )
METAR: KPRO 150855Z AUTO 36003KT 10SM CLR 14/10 A3010 RMK AO2 T01390101
View NOTAMs / SUP AIP / TFR affecting this airport [VIEW]
Communications frequencies: [VIEW]

Runways:

Airport contact information

Address: Stuart United States

Satellite view of IA33